June 16, 2024
Temp
 
63.6 °F
 
Dew Pt.
 
54.0 °F
 
Humidity
 
71%
 
Pressure
 
1006.8 hPa 
  steady
Wind
 
0.0 mph 
    SW
Rain
 
0.00 in 
  0.00 in/hr
UV index
 
---  
 
Solar rad.
 
100 W/m²
 
MAP MAG LOCAL DATETIME
y/m/d h:m:s
LAT
deg
LON
deg
DEPTH
km
LOCATION
map1.42024/06/16 00:46:2235.758N117.572W2.29 15 km ( 9 mi) W of Searles Valley, CA
map0.82024/06/16 00:44:2438.824N122.807W2.74000000953674 7 km ( 4 mi) NW of The Geysers, CA
map0.72024/06/16 00:19:5738.824N122.803W3.03999996185303 7 km ( 4 mi) NW of The Geysers, CA
MAP3.32024/06/16 00:19:0235.757N117.570W2.41 15 km ( 9 mi) W of Searles Valley, CA
map2.12024/06/15 23:33:5232.638N115.719W10.55 14 km ( 9 mi) WNW of Progreso, B.C., MX
map1.82024/06/15 23:33:5132.588N115.844W13.43 22 km (13 mi) SE of Ocotillo, CA
MAP3.12024/06/15 23:29:2137.257N121.637W3.97000002861023 14 km ( 9 mi) N of Morgan Hill, CA
map0.92024/06/15 23:13:4733.163N115.934W6.19 15 km ( 9 mi) S of Salton City, CA
map0.22024/06/15 23:05:0238.836N122.814W1.5 8 km ( 5 mi) W of Cobb, CA
map1.62024/06/15 23:00:2232.406N115.408W6.63 18 km (11 mi) SSW of Puebla, B.C., MX
map0.32024/06/15 22:56:5638.829N122.789W5.3600001335144 6 km ( 4 mi) W of Cobb, CA
map0.32024/06/15 22:50:3833.418N116.612W4.87 15 km ( 9 mi) N of Warner Springs, CA
map1.92024/06/15 22:37:0532.658N115.897W8.8 12 km ( 8 mi) SE of Ocotillo, CA
map1.02024/06/15 22:19:2833.908N117.930W2.69 3 km ( 2 mi) WSW of Brea, CA
map1.02024/06/15 22:11:2933.413N116.372W10.91 17 km (11 mi) N of Borrego Springs, CA
map0.62024/06/15 21:42:0733.273N116.425W4.76 5 km ( 3 mi) WNW of Borrego Springs, CA
map1.02024/06/15 21:24:2833.755N117.517W5.55 12 km ( 8 mi) NNE of Trabuco Canyon, CA
map0.72024/06/15 20:44:2738.793N122.766W3.83999991416931 2 km ( 1 mi) NNW of The Geysers, CA
map1.22024/06/15 20:42:2138.585N122.376W4.01000022888184 7 km ( 4 mi) E of Angwin, CA
map1.02024/06/15 20:07:3934.053N117.527W5.32 6 km ( 4 mi) NW of Glen Avon, CA
map1.12024/06/15 19:15:0438.820N122.842W2.24000000953674 9 km ( 6 mi) WNW of The Geysers, CA
map1.62024/06/15 18:53:1235.666N121.073W5.63000011444092 11 km ( 7 mi) N of Cambria, CA
map1.12024/06/15 18:52:2338.833N122.797W2.1800000667572 7 km ( 4 mi) W of Cobb, CA
map1.02024/06/15 18:49:3835.775N117.596W7.55 17 km (11 mi) W of Searles Valley, CA
map1.02024/06/15 18:42:5833.577N116.807W10.36 13 km ( 8 mi) W of Anza, CA
map0.92024/06/15 18:37:3438.836N122.787W1.71000003814697 6 km ( 4 mi) WNW of Cobb, CA
map1.42024/06/15 18:24:4733.834N117.869W6.07 2 km ( 1 mi) E of Anaheim, CA
map0.72024/06/15 18:16:5138.821N122.762W1.99000000953674 3 km ( 2 mi) W of Cobb, CA
map0.92024/06/15 17:53:3038.836N122.794W1.36000001430511 6 km ( 4 mi) WNW of Cobb, CA
map0.82024/06/15 16:57:5038.822N122.842W2.02999997138977 9 km ( 6 mi) NW of The Geysers, CA
map0.32024/06/15 16:48:3438.790N122.771W1.41999995708466 2 km ( 1 mi) NW of The Geysers, CA
map1.22024/06/15 16:27:5937.103N117.467W0.6 62 km (39 mi) NNW of Stovepipe Wells, CA
map1.22024/06/15 16:23:2138.787N122.766W2.27999997138977 1 km ( 1 mi) NW of The Geysers, CA
map0.22024/06/15 16:13:0038.835N122.790W1.79999995231628 6 km ( 4 mi) WNW of Cobb, CA
map0.22024/06/15 15:38:0438.821N122.811W1.41999995708466 7 km ( 4 mi) NW of The Geysers, CA
map0.92024/06/15 15:35:5138.807N122.821W2.39000010490417 6 km ( 4 mi) WNW of The Geysers, CA
map1.22024/06/15 15:35:3337.139N117.335W0.0 57 km (36 mi) WNW of Beatty, NV
map1.22024/06/15 15:10:3737.104N117.478W4.4 63 km (39 mi) NNW of Stovepipe Wells, CA
map0.02024/06/15 15:06:3236.778N116.245W8.9 48 km (30 mi) ESE of Beatty, NV
map1.02024/06/15 15:05:1338.831N122.809W0.819999992847443 8 km ( 5 mi) W of Cobb, CA
map0.72024/06/15 14:18:5238.796N122.774W3.71000003814697 3 km ( 2 mi) NW of The Geysers, CA
map1.82024/06/15 13:53:1037.512N121.915W2.33999991416931 7 km ( 4 mi) ESE of Fremont, CA
map0.82024/06/15 13:26:4738.821N122.765W2.27999997138977 4 km ( 2 mi) W of Cobb, CA
map0.82024/06/15 13:14:4038.792N122.809W3.46000003814697 5 km ( 3 mi) WNW of The Geysers, CA
map0.82024/06/15 12:11:2038.831N122.818W6.69000005722046 8 km ( 5 mi) NW of The Geysers, CA
map1.12024/06/15 11:26:2338.822N122.811W1.52999997138977 7 km ( 4 mi) NW of The Geysers, CA
map1.12024/06/15 10:59:4338.833N122.806W2.26999998092651 7 km ( 5 mi) W of Cobb, CA
map0.92024/06/15 10:34:5234.648N119.141W-1.72 22 km (14 mi) S of Pine Mountain Club, CA
map1.62024/06/15 10:34:4138.843N122.878W2.40000009536743 13 km ( 8 mi) ENE of Cloverdale, CA
map1.12024/06/15 10:27:5638.823N122.799W2.73000001907349 6 km ( 4 mi) NW of The Geysers, CA
map1.92024/06/15 10:13:5536.554N121.120W0.310000002384186 23 km (15 mi) NE of Soledad, CA
map1.82024/06/15 10:08:0335.458N120.606W8.26000022888184 7 km ( 4 mi) ESE of Atascadero, CA
map1.92024/06/15 10:06:4536.231N115.967W0.0 5 km ( 3 mi) ENE of Pahrump, NV
map0.42024/06/15 09:57:4533.651N116.719W14.29 10 km ( 6 mi) S of Idyllwild, CA
map1.62024/06/15 09:45:4933.031N116.004W8.81 17 km (11 mi) SE of Ocotillo Wells, CA
map1.72024/06/15 09:27:3538.834N122.806W1.96000003814697 7 km ( 5 mi) W of Cobb, CA
map0.82024/06/15 09:12:5338.832N122.849W2.50999999046326 10 km ( 6 mi) NW of The Geysers, CA
map0.72024/06/15 09:11:3438.823N122.787W1.51999998092651 6 km ( 3 mi) W of Cobb, CA
map2.12024/06/15 09:03:2839.115N123.126W3.13000011444092 4 km ( 3 mi) ESE of Talmage, CA
map2.32024/06/15 08:09:1938.771N122.722W2.24000000953674 3 km ( 2 mi) ESE of The Geysers, CA
map1.02024/06/15 08:08:4233.266N116.432W4.08 5 km ( 3 mi) WNW of Borrego Springs, CA
map0.32024/06/15 07:55:4438.823N122.787W1.11000001430511 6 km ( 3 mi) W of Cobb, CA
map0.32024/06/15 07:42:2638.821N122.816W3.16000008583069 7 km ( 4 mi) NW of The Geysers, CA
map1.12024/06/15 07:20:5238.802N122.811W0.829999983310699 5 km ( 3 mi) WNW of The Geysers, CA
map0.32024/06/15 07:11:3638.826N122.767W2.10999989509583 4 km ( 2 mi) W of Cobb, CA
map1.12024/06/15 06:54:1533.184N116.380W12.35 8 km ( 5 mi) S of Borrego Springs, CA
map-0.52024/06/15 06:18:0436.780N116.129W8.6 57 km (36 mi) ESE of Beatty, NV
map-0.52024/06/15 06:06:2336.775N116.129W8.5 58 km (36 mi) ESE of Beatty, NV
map1.32024/06/15 05:52:4439.296N123.237W4.71999979019165 4 km ( 3 mi) NW of Redwood Valley, CA
map2.42024/06/15 05:36:5240.320N124.837W14.539999961853 56 km (35 mi) WSW of Ferndale, CA
map0.42024/06/15 05:20:0633.676N116.789W18.73 10 km ( 6 mi) SW of Idyllwild, CA
map1.62024/06/15 05:14:3737.469N118.817W4.88000011444092 24 km (15 mi) SE of Mammoth Lakes, CA
map1.32024/06/15 05:03:1535.625N117.459W10.11 17 km (10 mi) SSW of Searles Valley, CA
map0.52024/06/15 04:54:4133.792N116.942W11.55 2 km ( 1 mi) ENE of San Jacinto, CA
map1.12024/06/15 04:43:2438.780N122.716W1.54999995231628 4 km ( 2 mi) E of The Geysers, CA
map0.52024/06/15 04:18:5438.822N122.815W4.36999988555908 7 km ( 4 mi) NW of The Geysers, CA
map1.12024/06/15 03:36:4238.794N122.763W2.98000001907349 2 km ( 1 mi) NNW of The Geysers, CA
map0.82024/06/15 03:05:2833.983N116.748W11.92 8 km ( 5 mi) NNE of Cabazon, CA
map0.52024/06/15 02:57:0233.120N116.376W8.43 15 km ( 9 mi) S of Borrego Springs, CA
map0.82024/06/15 02:53:4636.232N120.794W7.6399998664856 30 km (19 mi) E of King City, CA
map1.02024/06/15 02:47:1333.856N117.749W9.19 7 km ( 4 mi) ESE of Yorba Linda, CA
map1.12024/06/15 02:40:0838.815N122.762W1.80999994277954 3 km ( 2 mi) WSW of Cobb, CA
map1.12024/06/15 02:26:0138.790N122.726W1.89999997615814 3 km ( 2 mi) ENE of The Geysers, CA
map0.82024/06/15 02:06:0238.832N122.797W2.05999994277954 7 km ( 4 mi) W of Cobb, CA
map0.92024/06/15 02:05:3438.830N122.797W2.15000009536743 6 km ( 4 mi) W of Cobb, CA
map0.42024/06/15 01:57:3833.508N116.482W15.24 18 km (11 mi) ESE of Anza, CA
map1.92024/06/15 01:49:2933.639N117.030W14.06 9 km ( 6 mi) SE of Winchester, CA
map1.42024/06/15 01:39:3135.609N117.472W8.5 18 km (11 mi) E of Ridgecrest, CA
map1.12024/06/15 01:39:0434.051N117.530W5.26 6 km ( 4 mi) NW of Glen Avon, CA
map0.32024/06/15 01:37:4733.680N116.711W16.31 7 km ( 4 mi) S of Idyllwild, CA
map1.12024/06/15 00:26:4238.791N122.761W4.05000019073486 2 km ( 1 mi) NNW of The Geysers, CA
map0.82024/06/15 00:19:4538.824N122.786W0.740000009536743 5 km ( 3 mi) W of Cobb, CA
map1.12024/06/15 00:13:1836.123N117.665W0.3 27 km (17 mi) ENE of Coso Junction, CA
map0.82024/06/15 00:12:4338.824N122.784W0.879999995231628 5 km ( 3 mi) W of Cobb, CA
map1.02024/06/15 00:10:4138.824N122.765W2.25 4 km ( 2 mi) W of Cobb, CA
map0.32024/06/15 00:06:5538.818N122.812W8.22000026702881 7 km ( 4 mi) NW of The Geysers, CA
map0.62024/06/14 23:27:4736.546N116.621W0.0 23 km (14 mi) ENE of Furnace Creek, CA
map2.12024/06/14 23:00:2637.607N121.983W8.43000030517578 3 km ( 2 mi) ENE of Union City, CA
map1.42024/06/14 22:41:2137.216N121.912W1.78999996185303 5 km ( 3 mi) SSE of Cambrian Park, CA
map0.82024/06/14 22:33:2738.818N122.806W3.26999998092651 6 km ( 4 mi) NW of The Geysers, CA
map1.02024/06/14 22:17:1638.798N122.724W1.83000004291534 3 km ( 2 mi) S of Cobb, CA
map2.32024/06/14 21:35:3836.153N118.053W0.02 15 km ( 9 mi) SSW of Olancha, CA
map0.82024/06/14 21:33:3338.799N122.816W2.85999989509583 6 km ( 4 mi) WNW of The Geysers, CA
map1.12024/06/14 21:32:5333.118N116.375W8.27 15 km ( 9 mi) S of Borrego Springs, CA
map1.42024/06/14 21:28:1937.043N117.805W6.5 44 km (27 mi) NE of Independence, CA
map1.32024/06/14 21:25:2638.798N122.816W2.95000004768372 6 km ( 4 mi) WNW of The Geysers, CA
map0.72024/06/14 21:16:4233.400N117.021W15.01 6 km ( 4 mi) NE of Pala, CA
map0.72024/06/14 21:02:5738.834N122.820W1.99000000953674 8 km ( 5 mi) NW of The Geysers, CA
map0.72024/06/14 20:59:2538.829N122.743W9.14999961853027 2 km ( 1 mi) WNW of Cobb, CA
map1.02024/06/14 20:53:5338.823N122.767W2.11999988555908 4 km ( 2 mi) W of Cobb, CA
map1.02024/06/14 20:52:3733.990N116.999W14.31 5 km ( 3 mi) E of Calimesa, CA
map1.02024/06/14 19:58:2133.428N116.619W8.1 15 km ( 9 mi) SSE of Anza, CA
map-0.22024/06/14 19:22:2036.725N116.127W1.7 58 km (36 mi) N of Pahrump, NV
map0.82024/06/14 19:03:3433.266N116.429W3.68 5 km ( 3 mi) WNW of Borrego Springs, CA
map1.92024/06/14 19:00:5338.822N122.767W1.64999997615814 4 km ( 2 mi) W of Cobb, CA
map1.32024/06/14 18:35:0934.995N119.116W10.4 17 km (10 mi) N of Pine Mountain Club, CA
map2.02024/06/14 18:22:0636.122N117.992W2.58 9 km ( 6 mi) NNW of Coso Junction, CA
map2.32024/06/14 17:58:0340.690N124.524W15.4799995422363 25 km (16 mi) WNW of Ferndale, CA
map1.62024/06/14 17:51:5337.542N121.854W9.77000045776367 11 km ( 7 mi) E of Fremont, CA
map0.82024/06/14 17:22:2238.839N122.841W2.08999991416931 10 km ( 6 mi) NW of The Geysers, CA
map0.82024/06/14 17:21:0038.788N122.768W1.75 2 km ( 1 mi) NW of The Geysers, CA
map0.72024/06/14 16:37:2333.643N117.024W13.14 9 km ( 6 mi) SE of Winchester, CA
map1.32024/06/14 16:35:2238.200N117.978W3.0 67 km (42 mi) ESE of Hawthorne, NV
map1.12024/06/14 16:01:4839.344N119.050W4.3 17 km (11 mi) ESE of Silver Springs, NV
map1.22024/06/14 15:27:2738.199N117.858W10.4 57 km (35 mi) WNW of Tonopah, NV
map2.62024/06/14 15:00:3932.970N115.534W11.69 1 km ( 1 mi) SSW of Brawley, CA
map1.42024/06/14 14:07:3039.579N120.366W7.6 27 km (17 mi) SSE of Portola, CA
map1.12024/06/14 13:44:5438.830N122.814W2.09999990463257 8 km ( 5 mi) NW of The Geysers, CA
map0.52024/06/14 13:37:0033.419N116.362W12.76 18 km (11 mi) N of Borrego Springs, CA
map1.22024/06/14 13:20:0334.033N117.560W10.66 6 km ( 4 mi) NW of Mira Loma, CA
map1.52024/06/14 13:18:0534.033N117.563W10.98 6 km ( 4 mi) NW of Mira Loma, CA
map0.92024/06/14 13:06:0138.843N122.832W1.12000000476837 10 km ( 6 mi) WNW of Cobb, CA
map1.52024/06/14 12:58:3633.874N117.505W-0.49 3 km ( 2 mi) N of Quarry at CORONA (Probable quarry explosion)
map0.52024/06/14 12:44:4238.792N122.748W2.83999991416931 2 km ( 1 mi) NNE of The Geysers, CA
map1.42024/06/14 12:42:4338.792N122.751W1.99000000953674 2 km ( 1 mi) NNE of The Geysers, CA
map0.72024/06/14 12:39:2638.821N122.841W1.98000001907349 9 km ( 5 mi) WNW of The Geysers, CA
map0.32024/06/14 12:35:0733.514N116.760W5.09 9 km ( 6 mi) WSW of Anza, CA
map0.72024/06/14 12:23:3935.702N117.517W7.35 13 km ( 8 mi) SW of Searles Valley, CA
map1.82024/06/14 12:19:2837.800N121.971W10.0799999237061 2 km ( 1 mi) NNE of San Ramon, CA
map2.22024/06/14 11:35:3539.767N124.027W3.38000011444092 41 km (25 mi) NNW of Fort Bragg, CA
map1.42024/06/14 11:31:2633.118N116.377W8.6 15 km (10 mi) S of Borrego Springs, CA
map1.12024/06/14 11:21:0337.303N115.482W0.0 29 km (18 mi) WSW of Alamo, NV
map1.72024/06/14 11:16:5833.965N117.139W15.17 8 km ( 5 mi) WSW of Calimesa, CA
map1.32024/06/14 10:55:2338.196N117.862W11.9 57 km (35 mi) WNW of Tonopah, NV
map0.42024/06/14 10:26:1033.585N116.806W7.8 13 km ( 8 mi) WNW of Anza, CA
map1.12024/06/14 10:24:4438.832N122.817W1.5900000333786 8 km ( 5 mi) NW of The Geysers, CA
map1.22024/06/14 09:53:3233.127N116.156W10.91 3 km ( 2 mi) SW of Ocotillo Wells, CA
map1.82024/06/14 09:39:0936.884N121.620W1.23000001907349 2 km ( 1 mi) ESE of Aromas, CA
map1.12024/06/14 09:32:1738.809N122.819W1.37999999523163 6 km ( 4 mi) WNW of The Geysers, CA
map2.12024/06/14 09:24:5032.864N116.156W7.82 21 km (13 mi) NW of Ocotillo, CA
map1.22024/06/14 09:09:2933.986N116.465W7.79 4 km ( 3 mi) NE of Desert Hot Springs, CA
map0.42024/06/14 08:50:3133.625N116.665W12.72 8 km ( 5 mi) N of Anza, CA
map0.72024/06/14 08:10:5838.803N122.827W2.38000011444092 7 km ( 4 mi) WNW of The Geysers, CA
map1.12024/06/14 07:36:2238.830N122.818W1.72000002861023 8 km ( 5 mi) NW of The Geysers, CA
map0.92024/06/14 07:20:0035.669N117.477W8.58 13 km ( 8 mi) SSW of Searles Valley, CA
map0.92024/06/14 07:06:1733.327N116.873W10.12 3 km ( 2 mi) SSW of Palomar Observatory, CA
map0.72024/06/14 07:01:4433.866N116.893W15.35 7 km ( 4 mi) SSW of Banning, CA
map0.92024/06/14 06:55:5638.838N122.807W2.25999999046326 7 km ( 5 mi) WNW of Cobb, CA
map1.02024/06/14 06:39:3134.197N117.450W8.87 5 km ( 3 mi) WSW of Devore, CA
map0.92024/06/14 06:35:0437.353N117.889W5.1 41 km (26 mi) ENE of Big Pine, CA
map1.42024/06/14 06:19:5034.194N117.450W7 5 km ( 3 mi) SW of Devore, CA
map1.12024/06/14 05:40:5435.400N118.641W8.61 25 km (15 mi) SSW of Bodfish, CA
map0.92024/06/14 05:38:2037.464N118.801W5.12 25 km (15 mi) SE of Mammoth Lakes, CA
map0.82024/06/14 05:31:2837.407N114.337W0.0 28 km (17 mi) SE of Caliente, NV
map1.12024/06/14 05:26:4238.793N122.779W3.24000000953674 3 km ( 2 mi) NW of The Geysers, CA
map0.82024/06/14 04:44:3538.815N122.845W12.1499996185303 9 km ( 5 mi) WNW of The Geysers, CA
map0.62024/06/14 04:32:0133.010N116.316W10.9 23 km (14 mi) SW of Ocotillo Wells, CA
map1.32024/06/14 04:23:5933.141N115.955W5.12 16 km (10 mi) E of Ocotillo Wells, CA
map0.82024/06/14 04:22:0538.810N122.820W2.27999997138977 7 km ( 4 mi) WNW of The Geysers, CA
map-0.12024/06/14 04:14:1136.759N116.268W4.9 46 km (29 mi) ESE of Beatty, NV
map1.72024/06/14 04:06:0133.634N117.913W12.43 2 km ( 1 mi) NE of Newport Beach, CA
map0.72024/06/14 03:56:0538.798N119.618W5.1 15 km ( 9 mi) SE of Gardnerville Ranchos, NV
map0.92024/06/14 03:54:0133.410N116.362W13.17 17 km (11 mi) N of Borrego Springs, CA
map1.22024/06/14 03:42:4437.350N118.390W8.46 2 km ( 1 mi) SSE of Bishop, CA
map-0.12024/06/14 03:42:0639.181N119.522W5.5 9 km ( 5 mi) SE of Dayton, NV
map-0.52024/06/14 03:05:4636.647N116.065W10.0 49 km (30 mi) N of Pahrump, NV
map1.32024/06/14 02:55:0236.961N121.608W3.38000011444092 6 km ( 4 mi) SW of Gilroy, CA
map2.42024/06/14 02:22:1137.476N119.402W9.3100004196167 27 km (17 mi) NE of Oakhurst, CA
map0.52024/06/14 02:04:5533.264N116.425W4.3 5 km ( 3 mi) W of Borrego Springs, CA
map1.22024/06/14 01:50:3935.966N117.654W3.91 23 km (14 mi) E of Little Lake, CA
map2.02024/06/14 01:32:1238.194N117.863W12.2 57 km (35 mi) WNW of Tonopah, NV
map0.92024/06/14 01:18:2235.747N117.572W1.96 15 km (10 mi) W of Searles Valley, CA
map0.72024/06/14 00:30:5038.794N122.758W0.709999978542328 2 km ( 1 mi) N of The Geysers, CA
map0.62024/06/14 00:23:0835.926N118.482W-1.04 20 km (12 mi) NNW of Kernville, CA
map0.42024/06/14 00:23:0735.778N117.595W12.46 17 km (11 mi) W of Searles Valley, CA
map1.52024/06/14 00:22:1737.452N118.846W3.52999997138977 24 km (15 mi) SSE of Mammoth Lakes, CA
map0.72024/06/14 00:15:5438.831N122.819W1.52999997138977 8 km ( 5 mi) NW of The Geysers, CA
map1.42024/06/14 00:03:0033.229N116.072W10.23 11 km ( 7 mi) NNE of Ocotillo Wells, CA
map0.02024/06/13 23:55:5236.783N116.138W9.4 57 km (35 mi) ESE of Beatty, NV
map1.42024/06/13 23:27:3737.486N121.808W5 11 km ( 7 mi) NE of Milpitas, CA
map0.82024/06/13 23:21:3138.824N122.808W1.55999994277954 7 km ( 4 mi) NW of The Geysers, CA
map2.92024/06/13 22:25:2637.481N121.807W5.15000009536743 11 km ( 7 mi) NE of Milpitas, CA
map1.22024/06/13 22:08:5134.109N118.525W3.45 6 km ( 4 mi) SSW of Encino, CA
map0.32024/06/13 21:36:2939.786N120.144W14.3 19 km (12 mi) NW of Cold Springs, NV
map-0.32024/06/13 21:04:2136.714N115.965W2.5 56 km (35 mi) N of Pahrump, NV
map1.42024/06/13 20:33:5635.617N117.597W7.76 7 km ( 4 mi) E of Ridgecrest, CA
map0.22024/06/13 20:28:3738.824N122.850W1.64999997615814 10 km ( 6 mi) WNW of The Geysers, CA
map1.22024/06/13 20:24:5436.935N121.289W17.5499992370605 14 km ( 9 mi) NE of Hollister, CA
map0.72024/06/13 20:21:3338.826N122.763W1.85000002384186 3 km ( 2 mi) W of Cobb, CA
map0.62024/06/13 19:12:3838.824N122.796W3.35999989509583 6 km ( 4 mi) NW of The Geysers, CA
map1.02024/06/13 19:08:2133.482N116.468W12.47 21 km (13 mi) ESE of Anza, CA
map1.12024/06/13 18:41:5438.838N122.836W1.82000005245209 10 km ( 6 mi) NW of The Geysers, CA
map1.22024/06/13 18:41:3738.837N122.836W1.63999998569489 10 km ( 6 mi) NW of The Geysers, CA
map0.22024/06/13 18:33:4738.835N122.806W2.13000011444092 7 km ( 5 mi) WNW of Cobb, CA
map1.22024/06/13 17:46:5535.688N117.525W10.14 14 km ( 9 mi) SW of Searles Valley, CA
map0.82024/06/13 17:21:4238.827N122.802W1.75999999046326 7 km ( 4 mi) NW of The Geysers, CA
map2.72024/06/13 16:42:4936.553N121.065W5.3600001335144 27 km (17 mi) ENE of Soledad, CA
map1.02024/06/13 16:38:1038.846N122.817W0.819999992847443 9 km ( 5 mi) WNW of Cobb, CA
map1.72024/06/13 16:27:3633.067N116.488W13.34 11 km ( 7 mi) E of Julian, CA
map1.62024/06/13 15:54:0534.635N117.111W-1.01 1 km ( 1 mi) ENE of Quarry at VICTORVILLE (Probable quarry explosion)
map0.72024/06/13 15:44:3832.505N116.754W5.57 13 km ( 8 mi) WSW of Tecate, B.C., MX
map0.72024/06/13 15:18:1138.827N122.799W3 7 km ( 4 mi) W of Cobb, CA
map1.12024/06/13 14:54:5538.787N122.773W0.819999992847443 2 km ( 1 mi) NW of The Geysers, CA
map1.12024/06/13 14:54:3138.811N122.795W2.08999991416931 5 km ( 3 mi) NW of The Geysers, CA
map0.92024/06/13 14:36:4233.120N116.376W8.94 15 km ( 9 mi) S of Borrego Springs, CA
map0.42024/06/13 14:19:3238.809N122.796W3.11999988555908 5 km ( 3 mi) NW of The Geysers, CA
map0.82024/06/13 14:16:5435.832N117.662W9.94 24 km (15 mi) N of Ridgecrest, CA
map1.72024/06/13 14:11:1736.385N121.226W4.03000020980835 7 km ( 5 mi) NNE of Greenfield, CA
map0.72024/06/13 13:05:4539.767N119.663W13.7 14 km ( 8 mi) NNE of Spanish Springs, NV
map1.62024/06/13 12:43:4638.790N122.761W1.16999995708466 2 km ( 1 mi) NNW of The Geysers, CA
map1.12024/06/13 12:14:0534.929N118.208W-0.85 8 km ( 5 mi) SE of Quarry at DBM-TPO (Probable quarry explosion)
map1.42024/06/13 12:02:4838.786N122.738W1.28999996185303 2 km ( 1 mi) ENE of The Geysers, CA
map1.12024/06/13 11:57:4035.053N118.347W-0.93 2 km ( 2 mi) W of Quarry at MOJAVE (Probable quarry explosion)
map1.72024/06/13 11:47:3434.988N118.196W-0.91 3 km ( 2 mi) SW of Quarry at TPO-DBM (Probable quarry explosion)
map2.02024/06/13 11:44:4538.800N122.779W3.64000010490417 3 km ( 2 mi) NW of The Geysers, CA
map2.82024/06/13 11:06:3832.296N115.311W14.99 13 km ( 8 mi) WSW of Delta, B.C., MX
map1.12024/06/13 10:12:5338.813N122.825W2.17000007629395 7 km ( 4 mi) NW of The Geysers, CA
map0.82024/06/13 10:02:4733.684N116.692W17.47 7 km ( 4 mi) SSE of Idyllwild, CA
map0.92024/06/13 09:50:3633.789N116.121W6.31 12 km ( 7 mi) NE of Indio, CA
map0.82024/06/13 09:45:4633.464N116.439W9.65 24 km (15 mi) NNW of Borrego Springs, CA
map1.32024/06/13 09:22:3333.212N115.939W7.39 10 km ( 6 mi) S of Salton City, CA
map1.22024/06/13 09:20:5433.212N115.943W7.49 10 km ( 6 mi) S of Salton City, CA
map1.42024/06/13 08:47:1538.787N122.747W1.10000002384186 1 km ( 1 mi) NE of The Geysers, CA
map2.02024/06/13 08:43:5937.406N119.986W16.69 9 km ( 6 mi) S of Mariposa, CA
map1.52024/06/13 08:43:4633.263N116.430W4.36 5 km ( 3 mi) W of Borrego Springs, CA
map1.12024/06/13 08:06:4738.805N122.817W2.76999998092651 6 km ( 4 mi) WNW of The Geysers, CA
map0.62024/06/13 07:57:4133.478N116.554W8.21 14 km ( 9 mi) SE of Anza, CA
map0.92024/06/13 07:10:1434.928N119.043W14.05 10 km ( 6 mi) W of Grapevine, CA
map0.72024/06/13 07:03:1938.835N122.789W1.79999995231628 6 km ( 4 mi) WNW of Cobb, CA
map1.52024/06/13 07:02:0838.796N122.778W3.38000011444092 3 km ( 2 mi) NW of The Geysers, CA
map0.82024/06/13 06:59:2038.810N122.818W1.86000001430511 6 km ( 4 mi) NW of The Geysers, CA
map0.92024/06/13 06:58:1438.837N122.848W11.8599996566772 10 km ( 6 mi) NW of The Geysers, CA
map1.02024/06/13 06:51:0635.654N117.479W6.17 14 km ( 9 mi) SSW of Searles Valley, CA
map0.62024/06/13 06:47:4435.703N117.511W6.67 12 km ( 7 mi) SW of Searles Valley, CA
map0.92024/06/13 06:47:0933.758N115.919W3.45 24 km (15 mi) ENE of Thermal, CA
map1.32024/06/13 06:44:0937.347N114.247W9.4 38 km (24 mi) SE of Caliente, NV
map0.72024/06/13 06:21:0838.826N122.798W2.64000010490417 6 km ( 4 mi) NW of The Geysers, CA
map1.12024/06/13 06:16:5538.838N122.799W1.69000005722046 7 km ( 4 mi) WNW of Cobb, CA
map0.62024/06/13 06:03:5037.516N118.857W2.92 17 km (11 mi) SE of Mammoth Lakes, CA
map1.82024/06/13 05:53:5132.880N115.487W10.28 9 km ( 5 mi) ENE of Imperial, CA
map0.52024/06/13 05:50:5339.960N119.688W19.0 35 km (21 mi) N of Spanish Springs, NV
map-0.12024/06/13 05:39:0636.767N116.106W1.8 60 km (37 mi) ESE of Beatty, NV
map1.02024/06/13 05:26:4838.819N122.803W1.12000000476837 6 km ( 4 mi) NW of The Geysers, CA
map0.32024/06/13 05:15:3638.823N122.853W2.09999990463257 10 km ( 6 mi) WNW of The Geysers, CA
map0.92024/06/13 05:05:3339.462N120.284W12.2 17 km (11 mi) NNW of Truckee, CA
map1.02024/06/13 04:59:5435.655N117.452W4.88 13 km ( 8 mi) SSW of Searles Valley, CA
map0.02024/06/13 04:54:2139.641N119.391W7.5 12 km ( 8 mi) WNW of Fernley, NV
map1.82024/06/13 04:48:1037.350N117.912W11.29 39 km (24 mi) ENE of Big Pine, CA
map0.82024/06/13 04:07:3738.828N122.854W3 10 km ( 6 mi) NW of The Geysers, CA
map1.52024/06/13 04:01:0038.827N122.855W2.50999999046326 10 km ( 6 mi) WNW of The Geysers, CA
map0.82024/06/13 04:00:4138.799N122.753W4.42000007629395 2 km ( 2 mi) N of The Geysers, CA
map0.92024/06/13 02:19:2336.117N117.989W4.53 9 km ( 5 mi) NNW of Coso Junction, CA
map1.52024/06/13 02:09:4935.029N119.106W16.67 19 km (12 mi) WNW of Grapevine, CA
map1.12024/06/13 02:06:2038.806N122.821W2.38000011444092 6 km ( 4 mi) WNW of The Geysers, CA
map2.82024/06/13 01:56:1138.857N123.012W5.26000022888184 6 km ( 4 mi) N of Cloverdale, CA
map1.02024/06/13 01:47:0239.813N118.051W6.6 55 km (34 mi) SE of Lovelock, NV
map1.32024/06/13 01:31:1940.127N119.833W8.8 51 km (32 mi) NNE of Cold Springs, NV
map1.12024/06/13 01:23:4233.306N116.253W4.61 13 km ( 8 mi) ENE of Borrego Springs, CA
map0.82024/06/13 00:38:4035.685N117.532W9.26 15 km ( 9 mi) SW of Searles Valley, CA
map1.32024/06/13 00:08:3538.778N122.728W1.51999998092651 2 km ( 2 mi) E of The Geysers, CA
map0.72024/06/13 00:06:4038.798N122.804W2.83999991416931 5 km ( 3 mi) WNW of The Geysers, CA
map0.62024/06/12 23:41:4438.841N122.821W1.92999994754791 9 km ( 5 mi) WNW of Cobb, CA
map0.32024/06/12 23:19:0633.531N116.445W7.25 19 km (12 mi) SW of La Quinta, CA
map0.52024/06/12 22:21:0139.999N119.534W11.0 42 km (26 mi) NNE of Spanish Springs, NV
map1.32024/06/12 21:57:1637.469N118.837W1.5 22 km (14 mi) SE of Mammoth Lakes, CA
map0.52024/06/12 21:46:3938.792N122.782W3.48000001907349 3 km ( 2 mi) NW of The Geysers, CA
map1.32024/06/12 21:37:5838.791N122.726W1.38999998569489 3 km ( 2 mi) ENE of The Geysers, CA
map1.12024/06/12 21:34:0338.824N122.766W1.98000001907349 4 km ( 2 mi) W of Cobb, CA
map1.42024/06/12 21:31:3838.787N122.770W1.03999996185303 2 km ( 1 mi) NW of The Geysers, CA
map0.42024/06/12 21:31:1834.036N116.820W13.28 13 km ( 8 mi) NNE of Banning, CA
map1.12024/06/12 21:23:3538.818N122.825W2.21000003814697 7 km ( 5 mi) NW of The Geysers, CA
map0.32024/06/12 21:19:3238.828N122.796W3.00999999046326 6 km ( 4 mi) W of Cobb, CA
map1.12024/06/12 21:17:0538.818N122.824W2.3199999332428 7 km ( 5 mi) NW of The Geysers, CA
map0.52024/06/12 21:09:3133.584N116.810W8.19 13 km ( 8 mi) WNW of Anza, CA
map-0.42024/06/12 20:50:0436.720N116.144W1.4 58 km (36 mi) NNW of Pahrump, NV
map-0.52024/06/12 20:46:1936.691N116.059W4.0 54 km (33 mi) N of Pahrump, NV
map0.82024/06/12 20:34:0338.749N122.738W0.560000002384186 4 km ( 2 mi) SSE of The Geysers, CA
map0.82024/06/12 20:19:5433.243N116.044W4.59 10 km ( 6 mi) SW of Salton City, CA
map1.12024/06/12 20:19:3938.818N122.825W2.33999991416931 7 km ( 5 mi) NW of The Geysers, CA
map0.72024/06/12 20:19:3739.391N119.753W7.5 16 km (10 mi) S of Sparks, NV
map1.12024/06/12 20:13:0634.321N116.853W2.32 7 km ( 4 mi) N of Big Bear City, CA
map0.12024/06/12 20:12:3633.663N116.712W13.88 9 km ( 5 mi) S of Idyllwild, CA
map0.62024/06/12 20:03:4938.800N122.823W2.46000003814697 6 km ( 4 mi) WNW of The Geysers, CA
map0.72024/06/12 19:32:4738.838N122.839W0.129999995231628 10 km ( 6 mi) NW of The Geysers, CA
map1.22024/06/12 19:28:0334.136N117.035W6.6 11 km ( 7 mi) SE of Running Springs, CA
map-0.12024/06/12 19:22:5136.778N116.003W2.9 63 km (39 mi) N of Pahrump, NV
map1.32024/06/12 19:05:2938.818N122.825W2.25999999046326 7 km ( 5 mi) NW of The Geysers, CA
map0.62024/06/12 19:04:4038.818N122.827W2.04999995231628 8 km ( 5 mi) NW of The Geysers, CA
map0.82024/06/12 19:04:1338.819N122.827W2.36999988555908 8 km ( 5 mi) NW of The Geysers, CA
map0.92024/06/12 18:54:4738.818N122.828W2.60999989509583 8 km ( 5 mi) NW of The Geysers, CA
map1.12024/06/12 18:17:4138.818N122.825W2.15000009536743 7 km ( 5 mi) NW of The Geysers, CA
map0.72024/06/12 18:15:4938.844N122.830W1.11000001430511 10 km ( 6 mi) WNW of Cobb, CA
map0.72024/06/12 18:10:0033.713N116.816W16.56 8 km ( 5 mi) ESE of Valle Vista, CA
map1.32024/06/12 18:05:3938.792N122.723W2.22000002861023 3 km ( 2 mi) ENE of The Geysers, CA
map0.82024/06/12 18:04:3838.822N122.852W2.28999996185303 10 km ( 6 mi) WNW of The Geysers, CA
map0.82024/06/12 17:59:2633.249N116.274W9.52 9 km ( 6 mi) E of Borrego Springs, CA
map1.32024/06/12 17:54:0938.791N122.729W0.479999989271164 3 km ( 2 mi) ENE of The Geysers, CA
map1.52024/06/12 17:03:3238.103N122.879W12.8000001907349 2 km ( 1 mi) W of Inverness, CA
map1.12024/06/12 15:43:0139.419N119.724W6.8 13 km ( 8 mi) S of Sparks, NV
map0.82024/06/12 15:39:0438.822N122.817W3.1800000667572 7 km ( 5 mi) NW of The Geysers, CA
map1.52024/06/12 14:56:4939.277N119.644W4.9 6 km ( 4 mi) NW of Dayton, NV
map0.92024/06/12 14:46:3438.821N122.815W3.17000007629395 7 km ( 4 mi) NW of The Geysers, CA
map1.12024/06/12 14:37:0538.801N122.818W2.52999997138977 6 km ( 4 mi) WNW of The Geysers, CA
map1.02024/06/12 14:34:3438.788N122.772W1.12999999523163 2 km ( 1 mi) NW of The Geysers, CA
map0.82024/06/12 14:32:3138.801N122.820W3.22000002861023 6 km ( 4 mi) WNW of The Geysers, CA
map0.52024/06/12 14:20:1638.789N122.735W1.62000000476837 2 km ( 1 mi) NE of The Geysers, CA
map1.02024/06/12 14:17:3938.830N122.813W1.64999997615814 8 km ( 5 mi) NW of The Geysers, CA
map1.22024/06/12 13:56:5233.869N117.505W-0.53 2 km ( 1 mi) NNW of Quarry at CORONA (Probable quarry explosion)
map1.32024/06/12 13:39:3833.241N116.038W4.92 10 km ( 6 mi) SW of Salton City, CA
map1.12024/06/12 13:27:4138.822N122.785W1.80999994277954 5 km ( 3 mi) W of Cobb, CA
map0.82024/06/12 13:16:5539.393N119.869W5.7 14 km ( 9 mi) SSE of Mogul, NV
map0.82024/06/12 13:12:2438.820N122.763W1.64999997615814 3 km ( 2 mi) W of Cobb, CA
map1.22024/06/12 13:12:1138.818N122.764W1.58000004291534 4 km ( 2 mi) W of Cobb, CA
map-0.12024/06/12 12:52:5136.699N116.312W9.7 46 km (28 mi) ESE of Beatty, NV
map0.92024/06/12 12:43:1533.233N116.108W8.25 10 km ( 6 mi) NNE of Ocotillo Wells, CA
map0.92024/06/12 12:28:3938.791N122.885W16.5799999237061 11 km ( 7 mi) W of The Geysers, CA
map1.02024/06/12 12:13:2237.507N118.828W4.47 20 km (12 mi) SE of Mammoth Lakes, CA
map1.12024/06/12 11:29:0735.059N118.346W-0.93 3 km ( 2 mi) WNW of Quarry at MOJAVE (Probable quarry explosion)
map1.52024/06/12 11:28:3835.662N121.076W4.6399998664856 11 km ( 7 mi) N of Cambria, CA
map0.52024/06/12 11:02:4833.454N116.595W5.19 13 km ( 8 mi) SSE of Anza, CA
map0.82024/06/12 10:57:0538.797N122.780W3.20000004768372 3 km ( 2 mi) NW of The Geysers, CA
map1.92024/06/12 10:55:4140.746N122.307W4.26000022888184 9 km ( 6 mi) NE of Shasta Lake, CA
map1.22024/06/12 10:18:1939.258N123.303W4.32 9 km ( 5 mi) W of Redwood Valley, CA
map0.82024/06/12 10:11:3239.403N120.256W12.0 10 km ( 6 mi) NW of Truckee, CA
map0.42024/06/12 09:43:5638.812N122.824W2.5699999332428 7 km ( 4 mi) WNW of The Geysers, CA
map0.52024/06/12 09:42:3033.325N116.909W18.43 5 km ( 3 mi) SW of Palomar Observatory, CA
map0.72024/06/12 09:37:3038.824N122.766W2.25 4 km ( 2 mi) W of Cobb, CA
map0.82024/06/12 09:31:4434.854N118.766W-1.06 1 km ( 0 mi) NW of Quarry at GORMAN (Probable quarry explosion)
map0.92024/06/12 09:09:0633.326N116.850W9.92 4 km ( 2 mi) SSE of Palomar Observatory, CA
map0.42024/06/12 09:06:4333.681N116.720W15.86 7 km ( 4 mi) S of Idyllwild, CA
map0.62024/06/12 09:06:3133.673N116.719W15.32 7 km ( 5 mi) S of Idyllwild, CA
map0.52024/06/12 09:06:2133.686N116.725W16.29 6 km ( 4 mi) S of Idyllwild, CA
map1.12024/06/12 09:00:3138.792N122.779W3.22000002861023 3 km ( 2 mi) NW of The Geysers, CA
map1.12024/06/12 09:00:1338.817N122.821W2.61999988555908 7 km ( 4 mi) NW of The Geysers, CA
map0.72024/06/12 08:50:2138.834N122.822W10.5500001907349 9 km ( 5 mi) NW of The Geysers, CA
map0.72024/06/12 08:39:4138.837N122.800W1.99000000953674 7 km ( 4 mi) WNW of Cobb, CA
map0.72024/06/12 08:32:3738.839N122.826W2.20000004768372 9 km ( 6 mi) WNW of Cobb, CA
map0.72024/06/12 08:02:2938.841N122.824W2.14000010490417 9 km ( 6 mi) WNW of Cobb, CA
map1.12024/06/12 07:55:0133.346N116.204W11.26 17 km (10 mi) SW of Oasis, CA
map1.32024/06/12 07:53:3233.993N117.232W12.57 7 km ( 4 mi) SSE of Loma Linda, CA
map0.52024/06/12 07:53:1238.839N122.823W1.74000000953674 9 km ( 6 mi) WNW of Cobb, CA
map2.62024/06/12 07:48:1838.838N122.820W2.04999995231628 9 km ( 5 mi) WNW of Cobb, CA
map0.82024/06/12 07:44:5938.790N122.769W3.14000010490417 2 km ( 1 mi) NW of The Geysers, CA
map0.22024/06/12 07:32:2033.530N116.383W11.98 16 km (10 mi) SSW of La Quinta, CA
map1.02024/06/12 07:19:2238.833N122.793W1.49000000953674 6 km ( 4 mi) W of Cobb, CA
map0.62024/06/12 06:52:0338.825N122.789W0.340000003576279 6 km ( 4 mi) W of Cobb, CA
map0.02024/06/12 06:17:0540.101N119.774W11.9 50 km (31 mi) NNE of Cold Springs, NV
map0.82024/06/12 05:41:1038.820N122.817W2.88000011444092 7 km ( 4 mi) NW of The Geysers, CA
map1.92024/06/12 05:40:5633.972N116.213W9.41 20 km (13 mi) SSE of Joshua Tree, CA
map0.32024/06/12 05:14:5938.819N122.829W0.639999985694885 8 km ( 5 mi) NW of The Geysers, CA
map0.72024/06/12 05:14:2038.848N122.815W1.96000003814697 9 km ( 5 mi) WNW of Cobb, CA
map0.12024/06/12 05:04:0333.414N116.617W4.44 15 km ( 9 mi) N of Warner Springs, CA
map2.32024/06/12 05:02:4533.343N116.207W11.59 17 km (11 mi) SW of Oasis, CA
map1.02024/06/12 04:54:0933.791N116.125W3.45 11 km ( 7 mi) NE of Indio, CA
map0.92024/06/12 04:46:0837.277N118.153W8.3 17 km (11 mi) NE of Big Pine, CA
map1.12024/06/12 04:41:3438.840N122.825W1.73000001907349 9 km ( 6 mi) WNW of Cobb, CA
map0.92024/06/12 04:26:4839.470N120.320W11.6 20 km (12 mi) NW of Truckee, CA
MAP3.42024/06/12 04:23:0633.789N116.120W4.88 12 km ( 7 mi) NE of Indio, CA
map1.92024/06/12 04:22:1133.788N116.120W5.2 12 km ( 7 mi) NE of Indio, CA
map0.62024/06/12 04:11:5138.828N122.815W1.98000001907349 8 km ( 5 mi) NW of The Geysers, CA
map1.62024/06/12 04:02:0039.244N123.254W5.55000019073486 5 km ( 3 mi) WSW of Redwood Valley, CA
map0.92024/06/12 03:58:5838.839N122.821W1.42999994754791 9 km ( 5 mi) WNW of Cobb, CA
map0.72024/06/12 03:58:5733.895N117.201W8.63 4 km ( 3 mi) SE of Moreno Valley, CA
map0.82024/06/12 03:49:5438.817N122.824W3.10999989509583 7 km ( 5 mi) NW of The Geysers, CA
map0.92024/06/12 03:39:5338.817N122.825W2.35999989509583 7 km ( 5 mi) NW of The Geysers, CA
map1.02024/06/12 03:37:1236.062N117.716W2.07 21 km (13 mi) E of Coso Junction, CA
map-0.42024/06/12 03:31:2336.751N116.279W8.7 46 km (28 mi) ESE of Beatty, NV
map0.62024/06/12 03:10:1835.693N117.558W2.29 13 km ( 8 mi) NE of Ridgecrest, CA
map1.12024/06/12 03:05:1435.229N118.619W8.09 19 km (12 mi) NW of Tehachapi, CA
map1.12024/06/12 02:35:3735.400N118.647W4.11 25 km (16 mi) SW of Bodfish, CA
map0.62024/06/12 02:29:0238.846N122.836W1.77999997138977 10 km ( 6 mi) WNW of Cobb, CA
map1.12024/06/12 02:16:3533.221N116.011W3.22 10 km ( 6 mi) SSW of Salton City, CA
map2.12024/06/12 02:16:0738.843N122.829W1.3400000333786 10 km ( 6 mi) WNW of Cobb, CA
map0.62024/06/12 01:39:4033.312N116.251W10.24 13 km ( 8 mi) ENE of Borrego Springs, CA
map-0.22024/06/12 01:36:4436.717N116.235W5.8 51 km (32 mi) ESE of Beatty, NV
map1.72024/06/12 01:29:3440.406N124.090W21.49 10 km ( 7 mi) S of Rio Dell, CA
map0.92024/06/12 01:27:5934.431N119.181W2.7 6 km ( 4 mi) ESE of Ojai, CA
map1.52024/06/12 01:10:2435.656N117.482W5.05 14 km ( 9 mi) SSW of Searles Valley, CA
map1.12024/06/12 01:08:5633.683N116.697W16.03 7 km ( 4 mi) SSE of Idyllwild, CA
map0.82024/06/12 00:47:3038.838N122.799W2.05999994277954 7 km ( 4 mi) WNW of Cobb, CA
map0.42024/06/12 00:40:1933.360N116.382W12.87 12 km ( 7 mi) N of Borrego Springs, CA
map0.72024/06/12 00:31:3933.226N116.009W3.47 9 km ( 6 mi) SSW of Salton City, CA
map2.72024/06/12 00:26:4037.549N118.498W17.9200000762939 20 km (12 mi) NNW of Dixon Lane-Meadow Creek, CA
map1.82024/06/12 00:21:4538.818N122.817W2.80999994277954 7 km ( 4 mi) NW of The Geysers, CA
map1.62024/06/12 00:09:3136.617N121.246W7.34999990463257 22 km (13 mi) NE of Gonzales, CA
map0.42024/06/11 23:56:4038.842N122.828W2.01999998092651 9 km ( 6 mi) WNW of Cobb, CA
map0.72024/06/11 23:53:5938.840N122.824W0.689999997615814 9 km ( 6 mi) WNW of Cobb, CA
map0.32024/06/11 23:51:1338.832N122.798W1.0900000333786 7 km ( 4 mi) W of Cobb, CA
map2.02024/06/11 23:42:5840.553N123.816W18.3799991607666 24 km (15 mi) E of Hydesville, CA
map2.02024/06/11 23:41:3033.707N116.772W16.7 6 km ( 4 mi) SW of Idyllwild, CA
map2.42024/06/11 22:42:1237.972N122.350W4.8600001335144 1 km ( 1 mi) NNW of San Pablo, CA
map1.82024/06/11 22:26:1240.529N122.032W7.42999982833862 13 km ( 8 mi) WNW of Shingletown, CA
map1.32024/06/11 22:06:0138.792N122.767W3.46000003814697 2 km ( 1 mi) NNW of The Geysers, CA
map0.72024/06/11 20:39:3538.831N122.817W1.70000004768372 8 km ( 5 mi) NW of The Geysers, CA
map0.32024/06/11 20:31:4438.838N122.798W9.21000003814697 7 km ( 4 mi) WNW of Cobb, CA
map-0.22024/06/11 20:19:4436.712N116.231W2.3 51 km (32 mi) ESE of Beatty, NV
map1.22024/06/11 20:17:0833.205N116.053W8.98 10 km ( 6 mi) NE of Ocotillo Wells, CA
map1.52024/06/11 20:14:3638.821N122.765W2.13000011444092 4 km ( 2 mi) W of Cobb, CA
map1.32024/06/11 18:58:4536.011N120.593W-0.740000009536743 19 km (12 mi) NW of Parkfield, CA
map2.22024/06/11 18:56:3236.624N119.288W27.88 2 km ( 1 mi) E of Orange Cove, CA
map1.32024/06/11 18:55:1738.834N122.807W2.04999995231628 7 km ( 5 mi) W of Cobb, CA
map1.12024/06/11 18:47:5338.825N122.831W2.16000008583069 8 km ( 5 mi) NW of The Geysers, CA
map-0.42024/06/11 18:45:3936.717N116.040W4.2 57 km (35 mi) N of Pahrump, NV
map0.42024/06/11 18:22:1638.786N122.771W4.07999992370605 2 km ( 1 mi) NW of The Geysers, CA
map0.72024/06/11 18:17:2838.824N122.825W1.83000004291534 8 km ( 5 mi) NW of The Geysers, CA
map0.72024/06/11 18:10:2838.828N122.814W1.50999999046326 8 km ( 5 mi) NW of The Geysers, CA
map0.82024/06/11 18:02:3238.788N122.770W2.38000011444092 2 km ( 1 mi) NW of The Geysers, CA
map1.32024/06/11 17:42:1238.830N122.816W1.8400000333786 8 km ( 5 mi) NW of The Geysers, CA
map1.02024/06/11 17:23:0532.894N115.528W3.78 6 km ( 4 mi) NE of Imperial, CA
map0.82024/06/11 17:19:3338.845N122.830W1.25999999046326 10 km ( 6 mi) WNW of Cobb, CA
map1.12024/06/11 17:19:0538.812N122.824W0.779999971389771 7 km ( 4 mi) WNW of The Geysers, CA
map0.22024/06/11 17:14:4635.672N117.489W4.71 13 km ( 8 mi) SW of Searles Valley, CA
map0.22024/06/11 17:14:3536.102N117.905W4.21 7 km ( 5 mi) NNE of Coso Junction, CA
map0.62024/06/11 17:14:2636.102N117.906W3.86 7 km ( 5 mi) NNE of Coso Junction, CA
map0.72024/06/11 17:13:5035.708N117.560W2.22 14 km ( 9 mi) NE of Ridgecrest, CA
map0.22024/06/11 17:13:1436.632N116.281W5.9 52 km (32 mi) SE of Beatty, NV
map1.12024/06/11 17:02:4335.715N117.572W7.62 14 km ( 9 mi) NE of Ridgecrest, CA
map-0.22024/06/11 16:46:5836.759N116.268W4.0 46 km (29 mi) ESE of Beatty, NV
map1.32024/06/11 16:40:0738.787N122.747W2.28999996185303 1 km ( 1 mi) NE of The Geysers, CA
map1.12024/06/11 16:33:3038.835N122.815W1.67999994754791 8 km ( 5 mi) W of Cobb, CA
map1.82024/06/11 16:26:5235.033N117.681W-0.82 0 km ( 0 mi) NNW of Quarry at BORON (Probable quarry explosion)
map0.12024/06/11 16:25:3836.632N116.285W6.3 52 km (32 mi) SE of Beatty, NV
map0.82024/06/11 16:21:4638.788N122.746W0.319999992847443 2 km ( 1 mi) NE of The Geysers, CA
map0.82024/06/11 16:12:4138.782N122.743W0.850000023841858 1 km ( 1 mi) ENE of The Geysers, CA
map1.82024/06/11 16:06:3536.553N121.069W7.1100001335144 27 km (17 mi) ENE of Soledad, CA
map0.32024/06/11 15:29:5033.669N116.767W15.11 9 km ( 6 mi) SSW of Idyllwild, CA
map0.22024/06/11 15:29:4833.709N116.814W16.32 8 km ( 5 mi) ESE of Valle Vista, CA
map1.12024/06/11 14:59:0538.817N122.824W2.36999988555908 7 km ( 5 mi) NW of The Geysers, CA
map1.42024/06/11 14:22:3134.494N118.145W15.74 3 km ( 2 mi) WSW of Vincent, CA
map1.12024/06/11 14:10:0238.842N122.880W1.45000004768372 13 km ( 8 mi) ENE of Cloverdale, CA
map1.12024/06/11 14:06:1538.824N122.797W2.63000011444092 6 km ( 4 mi) NW of The Geysers, CA
map0.52024/06/11 14:03:3233.541N116.551W14.41 11 km ( 7 mi) E of Anza, CA
map1.12024/06/11 13:38:1738.517N122.586W7.9 7 km ( 4 mi) S of Calistoga, CA
map1.32024/06/11 13:28:5535.196N120.050W8.54 18 km (11 mi) SSW of Simmler, CA
map1.02024/06/11 13:28:3633.989N116.996W9.15 5 km ( 3 mi) E of Calimesa, CA
map1.62024/06/11 13:23:2635.870N117.719W9.76 18 km (11 mi) ESE of Little Lake, CA
map0.82024/06/11 13:21:2438.833N122.805W2.21000003814697 7 km ( 4 mi) W of Cobb, CA
map1.22024/06/11 13:18:2237.632N122.037W2.78 4 km ( 2 mi) ESE of Hayward, CA
map1.12024/06/11 13:05:5538.820N122.789W1.23000001907349 6 km ( 3 mi) NNW of The Geysers, CA
map1.52024/06/11 13:05:2235.201N120.045W6.44 17 km (11 mi) SSW of Simmler, CA
map0.52024/06/11 12:24:2935.544N117.384W6.25 24 km (15 mi) S of Trona, CA
map1.02024/06/11 12:14:4938.821N122.813W3.30999994277954 7 km ( 4 mi) NW of The Geysers, CA
map-0.12024/06/11 12:14:1335.640N117.525W4.87 14 km ( 9 mi) E of Ridgecrest, CA
map1.02024/06/11 11:52:0334.991N118.188W-0.91 3 km ( 2 mi) SW of Quarry at TPO-DBM (Probable quarry explosion)
map1.32024/06/11 11:40:2333.236N116.109W9.16 11 km ( 7 mi) NNE of Ocotillo Wells, CA
map1.32024/06/11 11:26:3633.233N116.107W9.77 10 km ( 6 mi) NNE of Ocotillo Wells, CA
map1.62024/06/11 11:23:1738.119N122.182W-0.1 18 km (11 mi) SSE of Quarry near Sears Point, CA(Probable quarry explosion)
map0.92024/06/11 11:13:3638.811N122.828W1.88999998569489 7 km ( 4 mi) WNW of The Geysers, CA
map1.22024/06/11 11:10:1435.873N117.715W10.49 19 km (12 mi) ESE of Little Lake, CA
map1.12024/06/11 11:09:3535.870N117.716W9.74 19 km (12 mi) ESE of Little Lake, CA
map0.72024/06/11 11:07:1138.841N122.810W2.16000008583069 8 km ( 5 mi) WNW of Cobb, CA
map-0.12024/06/11 10:50:5335.605N117.481W7.85 18 km (11 mi) E of Ridgecrest, CA
map1.02024/06/11 10:42:3733.895N116.243W4.3 16 km (10 mi) ENE of Thousand Palms, CA
map0.72024/06/11 10:13:1035.609N117.471W8.41 19 km (12 mi) E of Ridgecrest, CA
map0.32024/06/11 10:11:0838.818N122.825W3.22000002861023 7 km ( 5 mi) NW of The Geysers, CA
map2.02024/06/11 10:02:3836.035N120.108W5.01999998092651 4 km ( 2 mi) NNE of Avenal, CA
map0.92024/06/11 09:42:3235.682N117.546W5.57 14 km ( 8 mi) ENE of Ridgecrest, CA
map1.02024/06/11 09:42:2138.795N122.808W3.03999996185303 5 km ( 3 mi) WNW of The Geysers, CA
map0.92024/06/11 09:40:2738.796N122.773W4.21999979019165 3 km ( 2 mi) NW of The Geysers, CA
map1.52024/06/11 09:35:3636.608N121.176W5.78000020980835 24 km (15 mi) NNE of Soledad, CA
map1.12024/06/11 08:26:3138.827N122.788W1.53999996185303 6 km ( 4 mi) W of Cobb, CA
map0.82024/06/11 07:25:3838.832N122.820W1.82000005245209 8 km ( 5 mi) NW of The Geysers, CA
map0.02024/06/11 07:21:4636.773N116.251W9.3 47 km (29 mi) ESE of Beatty, NV
map1.92024/06/11 07:10:5235.662N121.080W6.23000001907349 11 km ( 7 mi) N of Cambria, CA
map0.22024/06/11 07:01:0638.841N122.825W1.8400000333786 9 km ( 6 mi) WNW of Cobb, CA
map1.52024/06/11 06:51:1735.639N117.451W5.8 15 km ( 9 mi) SSW of Searles Valley, CA
map1.02024/06/11 06:41:5833.451N116.626W7.47 12 km ( 8 mi) SSE of Anza, CA
map1.42024/06/11 06:25:2238.588N122.786W7.96999979019165 5 km ( 3 mi) NNE of Windsor, CA
map1.42024/06/11 06:20:5336.018N117.326W4.81 29 km (18 mi) N of Trona, CA
map0.82024/06/11 06:15:1338.824N122.814W2.09999990463257 7 km ( 4 mi) NW of The Geysers, CA
map0.92024/06/11 05:39:4833.584N116.624W14.47 6 km ( 4 mi) NE of Anza, CA
map0.82024/06/11 05:34:2538.823N122.814W2.00999999046326 7 km ( 4 mi) NW of The Geysers, CA
map1.12024/06/11 05:02:3438.823N122.825W2.22000002861023 8 km ( 5 mi) NW of The Geysers, CA
map0.72024/06/11 05:00:5738.837N122.812W0.569999992847443 8 km ( 5 mi) WNW of Cobb, CA
map0.82024/06/11 04:49:3433.017N116.419W5.26 18 km (11 mi) ESE of Julian, CA
map0.22024/06/11 04:31:1236.461N115.783W6.9 35 km (22 mi) NE of Pahrump, NV
map1.22024/06/11 04:17:0639.097N118.561W5.2 46 km (28 mi) SSE of Fallon, NV
map1.12024/06/11 03:54:3533.393N116.376W3.67 15 km ( 9 mi) N of Borrego Springs, CA
map1.12024/06/11 03:50:2438.806N122.821W2.71000003814697 6 km ( 4 mi) WNW of The Geysers, CA
map1.12024/06/11 03:50:0938.806N122.821W2.74000000953674 6 km ( 4 mi) WNW of The Geysers, CA
map0.82024/06/11 03:37:4638.806N122.822W3.14000010490417 7 km ( 4 mi) WNW of The Geysers, CA
map0.22024/06/11 01:11:4038.842N122.831W1.28999996185303 10 km ( 6 mi) WNW of Cobb, CA
map0.52024/06/11 01:05:2436.521N115.876W4.6 37 km (23 mi) NNE of Pahrump, NV
map1.92024/06/11 00:50:1734.397N120.033W-0.18 16 km (10 mi) W of Isla Vista, CA
map0.42024/06/11 00:04:2039.407N119.583W4.8 18 km (11 mi) WNW of Stagecoach, NV
map1.22024/06/10 23:14:0032.829N115.609W13.42 4 km ( 3 mi) WSW of Imperial, CA
map0.22024/06/10 23:09:2438.830N122.824W3.67000007629395 8 km ( 5 mi) NW of The Geysers, CA
map1.92024/06/10 22:55:1337.454N118.560W0.550000011920929 14 km ( 9 mi) NW of West Bishop, CA
map1.12024/06/10 22:49:3132.831N115.613W11.81 4 km ( 3 mi) WSW of Imperial, CA
map1.02024/06/10 22:49:2339.215N120.079W7.9 3 km ( 2 mi) NNE of Dollar Point, CA
map0.52024/06/10 22:37:3638.785N122.772W2.00999999046326 2 km ( 1 mi) WNW of The Geysers, CA
map0.82024/06/10 22:07:2938.813N122.783W1.83000004291534 5 km ( 3 mi) NNW of The Geysers, CA
map0.32024/06/10 20:56:1038.828N122.854W2.21000003814697 10 km ( 6 mi) NW of The Geysers, CA
map0.82024/06/10 20:51:4838.822N122.845W2.1800000667572 9 km ( 6 mi) WNW of The Geysers, CA
map0.22024/06/10 20:46:0838.837N122.791W1.88999998569489 6 km ( 4 mi) WNW of Cobb, CA
map1.22024/06/10 20:37:4935.733N117.564W8.88 15 km ( 9 mi) WSW of Searles Valley, CA
map0.82024/06/10 20:21:4438.808N122.828W3.84999990463257 7 km ( 4 mi) WNW of The Geysers, CA
map0.42024/06/10 20:10:1438.819N122.825W1.87999999523163 8 km ( 5 mi) NW of The Geysers, CA
map1.02024/06/10 20:04:4733.419N116.659W3.96 15 km ( 9 mi) S of Anza, CA
map1.32024/06/10 20:00:5238.823N122.804W1.62999999523163 7 km ( 4 mi) NW of The Geysers, CA
map0.72024/06/10 19:41:4833.499N116.537W4.74 14 km ( 9 mi) ESE of Anza, CA
map2.02024/06/10 19:41:4232.062N116.711W16.75 18 km (11 mi) N of El Sauzal, B.C., MX
map1.42024/06/10 19:38:4132.754N116.834W19.17 6 km ( 4 mi) NE of Jamul, CA
map-0.12024/06/10 19:35:4936.949N116.080W9.1 60 km (37 mi) E of Beatty, NV
map0.72024/06/10 19:33:2033.639N116.703W12.68 10 km ( 6 mi) NNW of Anza, CA
map0.72024/06/10 19:33:1533.640N116.709W14.51 10 km ( 6 mi) NNW of Anza, CA
map0.32024/06/10 19:16:4538.811N122.830W2.17000007629395 7 km ( 5 mi) WNW of The Geysers, CA
map-0.42024/06/10 19:06:1336.700N116.292W9.6 47 km (29 mi) ESE of Beatty, NV
map0.72024/06/10 18:49:2633.720N116.765W16.4 5 km ( 3 mi) WSW of Idyllwild, CA
map1.22024/06/10 18:45:4133.762N116.977W10.34 2 km ( 1 mi) NNW of Hemet, CA
map0.92024/06/10 18:45:3633.578N116.804W8.18 12 km ( 8 mi) WNW of Anza, CA
map0.72024/06/10 18:33:0133.931N116.920W12.59 4 km ( 3 mi) W of Banning, CA
map-0.12024/06/10 18:29:3436.838N116.211W4.2 49 km (30 mi) E of Beatty, NV
map1.42024/06/10 18:11:2533.973N116.214W9.58 20 km (13 mi) SSE of Joshua Tree, CA
MAP3.02024/06/10 17:53:0838.151N118.007W12.9 68 km (42 mi) SE of Hawthorne, NV
map1.22024/06/10 17:39:1738.592N122.795W7.86999988555908 5 km ( 3 mi) NNE of Windsor, CA
map2.52024/06/10 17:29:0938.149N118.011W12.9 68 km (42 mi) SE of Hawthorne, NV
map1.42024/06/10 17:02:1432.963N115.556W9.28 3 km ( 2 mi) SW of Brawley, CA
map1.52024/06/10 16:53:3738.828N122.797W0.970000028610229 6 km ( 4 mi) W of Cobb, CA
map1.12024/06/10 16:47:1135.045N117.668W-0.79 2 km ( 1 mi) NNE of Quarry at BORON (Probable quarry explosion)
map1.22024/06/10 16:17:0238.836N122.789W1.9099999666214 6 km ( 4 mi) WNW of Cobb, CA
map1.12024/06/10 16:10:1638.788N122.770W1.20000004768372 2 km ( 1 mi) NW of The Geysers, CA
map-0.12024/06/10 15:57:0236.718N116.234W5.1 51 km (32 mi) ESE of Beatty, NV
map0.72024/06/10 15:43:0333.270N116.406W5.43 3 km ( 2 mi) WNW of Borrego Springs, CA
map2.92024/06/10 14:58:3540.996N123.272W35.86 31 km (19 mi) ENE of Willow Creek, CA
map0.72024/06/10 14:50:3038.838N122.791W1.46000003814697 6 km ( 4 mi) WNW of Cobb, CA
map1.02024/06/10 14:23:4738.815N122.822W2.05999994277954 7 km ( 4 mi) NW of The Geysers, CA
map0.92024/06/10 13:47:4538.822N122.844W1.99000000953674 9 km ( 6 mi) WNW of The Geysers, CA
map2.02024/06/10 13:01:0140.317N124.431W18.4799995422363 32 km (20 mi) SSW of Ferndale, CA
map1.32024/06/10 12:39:1038.757N122.729W2.08999991416931 3 km ( 2 mi) SE of The Geysers, CA
map1.02024/06/10 12:36:2238.827N122.797W2.60999989509583 6 km ( 4 mi) W of Cobb, CA
map2.22024/06/10 12:33:5838.756N122.728W0.970000028610229 3 km ( 2 mi) SE of The Geysers, CA
map0.82024/06/10 12:29:0538.827N122.769W2.86999988555908 4 km ( 3 mi) W of Cobb, CA
map1.32024/06/10 12:01:0536.036N117.601W1.97 30 km (18 mi) ENE of Little Lake, CA
map1.22024/06/10 11:58:5734.986N118.191W-0.94 3 km ( 2 mi) SW of Quarry at TPO-DBM (Probable quarry explosion)
map1.32024/06/10 11:49:5339.195N123.165W2.5 6 km ( 4 mi) NE of Ukiah, CA
map0.72024/06/10 11:30:4238.840N122.796W1.87999999523163 7 km ( 4 mi) WNW of Cobb, CA
map0.32024/06/10 11:19:3635.640N117.462W5.84 15 km ( 9 mi) SSW of Searles Valley, CA
map1.02024/06/10 10:25:5638.822N122.764W2.20000004768372 4 km ( 2 mi) W of Cobb, CA
map1.22024/06/10 09:44:3436.658N116.272W7.4 51 km (32 mi) ESE of Beatty, NV
map0.92024/06/10 09:24:3738.837N122.792W2.0699999332428 6 km ( 4 mi) WNW of Cobb, CA
map0.82024/06/10 08:54:3638.826N122.807W2.41000008583069 7 km ( 4 mi) NW of The Geysers, CA
map0.82024/06/10 08:39:4038.782N122.725W1.27999997138977 3 km ( 2 mi) E of The Geysers, CA
map1.12024/06/10 08:31:2738.828N122.811W1.14999997615814 7 km ( 5 mi) NW of The Geysers, CA
map1.22024/06/10 07:44:1438.831N122.814W2.21000003814697 8 km ( 5 mi) NW of The Geysers, CA
map1.82024/06/10 07:27:0936.968N121.610W2.84999990463257 6 km ( 3 mi) SW of Gilroy, CA
map1.42024/06/10 05:25:4439.402N119.570W2.8 17 km (11 mi) W of Stagecoach, NV
map1.42024/06/10 05:24:0737.274N118.142W5.2 18 km (11 mi) NE of Big Pine, CA
map2.22024/06/10 04:51:0133.379N118.108W2 21 km (13 mi) E of Avalon, CA
map1.02024/06/10 04:44:3432.924N116.234W10.57 26 km (16 mi) SSW of Ocotillo Wells, CA
map0.32024/06/10 04:22:5738.822N122.825W2.16000008583069 8 km ( 5 mi) NW of The Geysers, CA
map0.92024/06/10 03:57:2533.921N116.785W17.02 0 km ( 0 mi) NNE of Cabazon, CA
map1.02024/06/10 03:48:3338.789N122.782W4.26999998092651 3 km ( 2 mi) WNW of The Geysers, CA
map1.02024/06/10 03:45:4438.836N122.789W2.09999990463257 6 km ( 4 mi) WNW of Cobb, CA
map1.52024/06/10 03:44:5038.805N122.778W2 4 km ( 2 mi) NNW of The Geysers, CA
map1.72024/06/10 03:43:2538.805N122.778W1.8400000333786 4 km ( 2 mi) NNW of The Geysers, CA
map1.12024/06/10 03:21:4638.200N117.735W8.5 46 km (29 mi) WNW of Tonopah, NV
map1.12024/06/10 03:21:0938.812N122.797W1.83000004291534 5 km ( 3 mi) NW of The Geysers, CA
map1.62024/06/10 03:06:3433.452N116.510W11.6 19 km (12 mi) SE of Anza, CA
map1.52024/06/10 02:45:4438.596N122.802W10.8999996185303 6 km ( 3 mi) NNE of Windsor, CA
map-0.22024/06/10 02:31:2936.760N116.269W4.1 46 km (29 mi) ESE of Beatty, NV
map0.42024/06/10 01:21:4637.190N117.806W5.1 43 km (27 mi) E of Big Pine, CA
map0.42024/06/10 01:14:3838.807N122.821W2.57999992370605 6 km ( 4 mi) WNW of The Geysers, CA
map1.52024/06/10 01:06:1532.642N115.765W5.65 18 km (11 mi) WNW of Progreso, B.C., MX
map1.52024/06/10 01:02:1938.122N118.235W9.1 56 km (35 mi) SE of Hawthorne, NV
map0.82024/06/10 00:46:5438.835N122.810W2.02999997138977 8 km ( 5 mi) W of Cobb, CA
map1.02024/06/10 00:45:1038.821N122.811W1.79999995231628 7 km ( 4 mi) NW of The Geysers, CA
map1.02024/06/10 00:44:2738.829N122.812W2.10999989509583 8 km ( 5 mi) NW of The Geysers, CA
map0.72024/06/10 00:33:2738.826N122.805W1.23000001907349 7 km ( 4 mi) NW of The Geysers, CA
map0.82024/06/10 00:32:3238.820N122.824W2.80999994277954 8 km ( 5 mi) NW of The Geysers, CA
map0.82024/06/10 00:30:1238.831N122.813W1.35000002384186 8 km ( 5 mi) NW of The Geysers, CA
map2.62024/06/10 00:11:3436.963N121.617W3 6 km ( 4 mi) SW of Gilroy, CA
map0.62024/06/09 23:33:1339.224N119.830W11.9 9 km ( 5 mi) NW of Carson City, NV
map0.32024/06/09 23:00:1038.791N122.781W3.64000010490417 3 km ( 2 mi) NW of The Geysers, CA
map1.32024/06/09 22:53:3837.007N117.485W2.1 54 km (34 mi) NW of Stovepipe Wells, CA
map0.82024/06/09 22:23:4738.835N122.805W1.99000000953674 7 km ( 4 mi) W of Cobb, CA
map0.52024/06/09 21:50:4335.642N117.478W5.78 15 km (10 mi) SSW of Searles Valley, CA
map0.82024/06/09 21:46:1435.644N117.473W6.15 15 km ( 9 mi) SSW of Searles Valley, CA
map0.92024/06/09 21:42:4634.063N116.825W13.3 16 km (10 mi) NNE of Banning, CA
map0.92024/06/09 21:38:5638.823N122.766W2.40000009536743 4 km ( 2 mi) W of Cobb, CA
map0.62024/06/09 21:34:3533.174N116.588W13.32 11 km ( 7 mi) N of Julian, CA
map-0.12024/06/09 21:31:2536.764N116.266W3.5 46 km (29 mi) ESE of Beatty, NV
map1.52024/06/09 21:28:5636.546N121.081W3.86999988555908 26 km (16 mi) ENE of Soledad, CA
map1.22024/06/09 21:25:3738.186N117.826W6.7 54 km (33 mi) WNW of Tonopah, NV
map0.92024/06/09 20:12:5438.806N122.816W2.91000008583069 6 km ( 4 mi) WNW of The Geysers, CA
map0.82024/06/09 20:09:5938.819N122.835W0.360000014305115 8 km ( 5 mi) NW of The Geysers, CA
map0.82024/06/09 20:09:4938.818N122.835W0.349999994039536 8 km ( 5 mi) NW of The Geysers, CA
map-0.02024/06/09 20:01:5933.532N116.729W4.61 6 km ( 4 mi) WSW of Anza, CA
map0.82024/06/09 19:50:4938.809N122.819W1.87000000476837 6 km ( 4 mi) WNW of The Geysers, CA
map0.82024/06/09 19:46:0838.802N122.820W2.89000010490417 6 km ( 4 mi) WNW of The Geysers, CA
map1.02024/06/09 19:40:0538.810N122.811W1.01999998092651 6 km ( 4 mi) NW of The Geysers, CA
map0.82024/06/09 19:34:4236.763N116.269W4.8 46 km (29 mi) ESE of Beatty, NV
map1.22024/06/09 19:33:1433.857N117.027W9.21 9 km ( 6 mi) SSW of Beaumont, CA
map2.22024/06/09 19:12:3633.990N117.234W13.56 7 km ( 4 mi) SSE of Loma Linda, CA
map1.02024/06/09 19:11:1638.825N122.831W2.20000004768372 8 km ( 5 mi) NW of The Geysers, CA
map2.22024/06/09 18:40:5940.528N124.441W19.1900005340576 16 km (10 mi) WSW of Ferndale, CA
map0.62024/06/09 18:31:5833.465N116.491W13.58 20 km (12 mi) ESE of Anza, CA
map0.92024/06/09 18:22:2536.007N120.565W3.53999996185303 17 km (11 mi) NW of Parkfield, CA
map1.32024/06/09 18:20:1135.716N120.898W1.75999999046326 2 km ( 1 mi) SW of Lake Nacimiento, CA
map0.62024/06/09 18:05:3733.671N116.753W14.92 8 km ( 5 mi) SSW of Idyllwild, CA
map0.52024/06/09 17:55:5733.173N116.585W13.52 11 km ( 7 mi) N of Julian, CA
map0.92024/06/09 17:37:5635.382N117.753W7.77 11 km ( 7 mi) W of Johannesburg, CA
map0.82024/06/09 17:29:0533.054N116.407W11.34 18 km (11 mi) E of Julian, CA
map1.62024/06/09 17:13:1135.032N117.682W-0.82 0 km ( 0 mi) NNW of Quarry at BORON (Probable quarry explosion)
map0.42024/06/09 16:57:2438.818N122.824W2.71000003814697 7 km ( 5 mi) NW of The Geysers, CA
map1.12024/06/09 16:56:0938.827N122.802W1.66999995708466 7 km ( 4 mi) NW of The Geysers, CA
map0.22024/06/09 16:55:5638.828N122.802W1.63999998569489 7 km ( 4 mi) W of Cobb, CA
map1.02024/06/09 15:51:2134.831N116.337W7.94 20 km (13 mi) NW of Ludlow, CA
map1.82024/06/09 14:38:1934.018N117.234W15.91 4 km ( 3 mi) SE of Loma Linda, CA
map0.42024/06/09 14:24:2933.592N116.802W9.53 13 km ( 8 mi) WNW of Anza, CA
map0.82024/06/09 14:20:5138.828N122.857W2.49000000953674 10 km ( 6 mi) WNW of The Geysers, CA
map0.92024/06/09 14:15:0938.802N122.822W3.74000000953674 6 km ( 4 mi) WNW of The Geysers, CA
map1.62024/06/09 14:00:1533.408N116.656W3.97 14 km ( 9 mi) N of Warner Springs, CA
map1.22024/06/09 13:53:4835.968N117.653W3.87 23 km (14 mi) E of Little Lake, CA
map0.82024/06/09 13:37:0838.805N122.814W2.16000008583069 6 km ( 4 mi) WNW of The Geysers, CA
map0.92024/06/09 13:27:4338.819N122.826W1.12999999523163 8 km ( 5 mi) NW of The Geysers, CA
map1.12024/06/09 13:17:1538.811N122.818W2.24000000953674 6 km ( 4 mi) NW of The Geysers, CA
map1.62024/06/09 13:12:0535.438N118.376W5.15 20 km (12 mi) SSE of Bodfish, CA
map1.22024/06/09 13:08:2733.275N116.332W12.24 5 km ( 3 mi) ENE of Borrego Springs, CA
map0.12024/06/09 13:00:3336.979N116.123W7.1 57 km (35 mi) E of Beatty, NV
map0.72024/06/09 12:58:5235.671N117.527W8.91 15 km ( 9 mi) ENE of Ridgecrest, CA
map1.42024/06/09 12:55:0932.651N115.712W9.96 14 km ( 9 mi) WNW of Progreso, B.C., MX
map1.42024/06/09 12:46:5935.627N115.919W11.1 37 km (23 mi) SE of Tecopa, CA
map0.92024/06/09 10:52:5735.729N118.411W4.42 3 km ( 2 mi) SSE of Kernville, CA
map0.92024/06/09 10:51:3038.796N122.812W3.21000003814697 5 km ( 3 mi) WNW of The Geysers, CA
map0.92024/06/09 10:44:3033.987N117.172W18.44 8 km ( 5 mi) S of Redlands, CA
map1.12024/06/09 10:30:0738.825N122.808W1.64999997615814 7 km ( 4 mi) NW of The Geysers, CA
map1.12024/06/09 10:28:3238.807N122.815W1.60000002384186 6 km ( 4 mi) WNW of The Geysers, CA
map0.82024/06/09 10:23:3238.825N122.808W1.54999995231628 7 km ( 4 mi) NW of The Geysers, CA
map0.22024/06/09 10:22:2638.825N122.808W1.63999998569489 7 km ( 4 mi) NW of The Geysers, CA
map1.82024/06/09 10:11:1534.011N117.195W14.48 5 km ( 3 mi) SSW of Redlands, CA
map0.82024/06/09 10:08:5338.822N122.788W2.03999996185303 6 km ( 4 mi) W of Cobb, CA
map0.32024/06/09 09:57:4638.818N122.821W1.70000004768372 7 km ( 4 mi) NW of The Geysers, CA
map1.22024/06/09 09:55:5837.180N117.340W10.1 60 km (37 mi) WNW of Beatty, NV
map1.32024/06/09 09:43:1738.809N122.821W3.07999992370605 7 km ( 4 mi) WNW of The Geysers, CA
map1.92024/06/09 09:35:4435.999N120.562W1.6599999666214 16 km (10 mi) NW of Parkfield, CA
map1.52024/06/09 09:34:4036.512N121.094W4.76999998092651 23 km (14 mi) ENE of Soledad, CA
map1.12024/06/09 09:22:1136.947N121.592W6.28999996185303 7 km ( 4 mi) SSW of Gilroy, CA
map0.72024/06/09 09:15:4638.835N122.789W1.75999999046326 6 km ( 4 mi) WNW of Cobb, CA
map0.62024/06/09 08:57:5833.466N116.621W4.54 11 km ( 7 mi) SSE of Anza, CA
map0.32024/06/09 08:52:5138.831N122.810W6.1100001335144 8 km ( 5 mi) NW of The Geysers, CA
map1.42024/06/09 08:15:5438.820N122.802W3.10999989509583 6 km ( 4 mi) NW of The Geysers, CA
map2.02024/06/09 08:06:5834.168N116.882W1.73 9 km ( 6 mi) SSE of Big Bear Lake, CA
map0.82024/06/09 08:00:1938.837N122.818W2.02999997138977 8 km ( 5 mi) WNW of Cobb, CA
map1.82024/06/09 07:57:4733.993N118.471W14.51 2 km ( 1 mi) NW of Marina del Rey, CA
map1.72024/06/09 07:40:5235.986N120.544W5.88000011444092 14 km ( 9 mi) NW of Parkfield, CA
map0.82024/06/09 07:32:4638.824N122.763W0.100000001490116 3 km ( 2 mi) W of Cobb, CA
map1.12024/06/09 07:23:0038.823N122.765W2.25999999046326 4 km ( 2 mi) W of Cobb, CA
map1.22024/06/09 06:23:5033.342N116.204W11.47 17 km (11 mi) SW of Oasis, CA
map1.12024/06/09 06:13:5638.822N122.799W1.58000004291534 6 km ( 4 mi) NW of The Geysers, CA
map-0.22024/06/09 06:07:3936.736N116.290W8.0 46 km (28 mi) ESE of Beatty, NV
map-0.22024/06/09 06:06:0436.734N116.294W7.9 45 km (28 mi) ESE of Beatty, NV
map0.82024/06/09 05:34:1838.792N122.760W1.17999994754791 2 km ( 1 mi) NNW of The Geysers, CA
map1.92024/06/09 05:13:3038.750N122.729W-0.519999980926514 4 km ( 2 mi) SE of The Geysers, CA
map1.12024/06/09 05:04:5538.809N122.823W3.24000000953674 7 km ( 4 mi) WNW of The Geysers, CA
map0.82024/06/09 05:04:3439.452N120.284W13.7 16 km (10 mi) NNW of Truckee, CA
map0.92024/06/09 04:55:1734.013N117.196W14.7 5 km ( 3 mi) SSW of Redlands, CA
map2.12024/06/09 04:42:4433.856N118.452W11.1 5 km ( 3 mi) W of Hermosa Beach, CA
map1.72024/06/09 04:41:1134.011N117.200W15.25 5 km ( 3 mi) SSW of Redlands, CA
map1.62024/06/09 04:41:0834.015N117.198W14.06 5 km ( 3 mi) SSW of Redlands, CA
map1.62024/06/09 04:41:0634.010N117.197W14.63 5 km ( 3 mi) SSW of Redlands, CA
map0.92024/06/09 04:34:5233.827N117.646W3.78 9 km ( 5 mi) SW of Corona, CA
map1.42024/06/09 04:34:2738.805N122.781W2.78999996185303 4 km ( 2 mi) NW of The Geysers, CA
map1.32024/06/09 04:14:4938.834N122.762W0.829999983310699 4 km ( 2 mi) WNW of Cobb, CA
map0.22024/06/09 04:13:5436.751N115.865W5.2 62 km (38 mi) NNE of Pahrump, NV
map1.22024/06/09 04:06:1338.807N122.824W2.97000002861023 7 km ( 4 mi) WNW of The Geysers, CA
map2.72024/06/09 04:01:2638.820N121.418W18.2700004577637 12 km ( 8 mi) NNE of Elverta, CA
map0.72024/06/09 03:57:3238.851N122.841W0.990000009536743 11 km ( 7 mi) WNW of Cobb, CA
map1.12024/06/09 03:52:4538.789N122.768W2.34999990463257 2 km ( 1 mi) NW of The Geysers, CA
map1.72024/06/09 03:45:5538.824N122.805W1.28999996185303 7 km ( 4 mi) NW of The Geysers, CA
map0.82024/06/09 03:40:2738.814N122.857W13.3999996185303 10 km ( 6 mi) WNW of The Geysers, CA
map0.42024/06/09 03:36:4338.836N122.785W1.37000000476837 6 km ( 3 mi) WNW of Cobb, CA
map0.62024/06/09 03:32:4533.119N116.376W8.51 15 km ( 9 mi) S of Borrego Springs, CA
map0.82024/06/09 03:27:3633.488N116.579W11.71 11 km ( 7 mi) SE of Anza, CA
map1.42024/06/09 03:06:4036.983N121.624W-0.209999993443489 6 km ( 3 mi) WSW of Gilroy, CA
map0.72024/06/09 02:57:3539.455N120.273W14.5 16 km (10 mi) NNW of Truckee, CA
map-0.42024/06/09 02:56:1636.702N116.318W8.5 45 km (28 mi) ESE of Beatty, NV
map1.12024/06/09 02:37:1538.828N122.855W2.52999997138977 10 km ( 6 mi) NW of The Geysers, CA
MAP3.22024/06/09 02:25:1436.965N121.613W4.42 6 km ( 4 mi) SW of Gilroy, CA
map0.82024/06/09 02:22:5833.885N116.860W13.66 5 km ( 3 mi) SSE of Banning, CA
map1.12024/06/09 02:18:3138.805N122.795W3.47000002861023 5 km ( 3 mi) NW of The Geysers, CA
map1.12024/06/09 01:44:3538.818N122.824W2.35999989509583 7 km ( 5 mi) NW of The Geysers, CA
map1.12024/06/09 01:31:3138.818N122.824W2.25 7 km ( 5 mi) NW of The Geysers, CA
map0.82024/06/09 01:28:0238.816N122.817W1.91999995708466 7 km ( 4 mi) NW of The Geysers, CA
map0.32024/06/09 01:17:3037.091N117.376W4.0 58 km (36 mi) NNW of Stovepipe Wells, CA
map0.72024/06/09 01:15:1338.825N122.829W2.1800000667572 8 km ( 5 mi) NW of The Geysers, CA